Time;durP1;ratioP1;P1;durP2;ratioP2;P2;SDS_P1;SDS_P2;PMS_P1;PMS_P2;Temp;Humidity;BMP_temperature;BMP_pressure;BME280_temperature;BME280_humidity;BME280_pressure;Samples;Min_cycle;Max_cycle;Signal;HPM_P1;HPM_P2
2022/07/11 00:01:03;;;;;;;6.45;2.88;;;15.30;99.90;;;;;;5050306;28;20618;-63
2022/07/11 00:03:29;;;;;;;6.43;2.90;;;15.30;99.90;;;;;;5062260;28;20040;-62
2022/07/11 00:05:54;;;;;;;7.85;2.70;;;15.40;99.90;;;;;;5058993;28;20047;-62
2022/07/11 00:08:20;;;;;;;7.85;2.67;;;15.40;99.90;;;;;;5046991;28;20051;-62
2022/07/11 00:10:46;;;;;;;7.80;2.90;;;15.40;99.90;;;;;;5051521;28;20416;-62
2022/07/11 00:13:12;;;;;;;6.30;2.95;;;15.40;99.90;;;;;;5049962;28;20036;-62
2022/07/11 00:15:38;;;;;;;7.18;2.95;;;15.40;99.90;;;;;;5057105;28;20037;-63
2022/07/11 00:18:03;;;;;;;3.40;2.60;;;15.40;99.90;;;;;;5056745;28;20040;-62
2022/07/11 00:20:29;;;;;;;5.53;2.75;;;15.40;99.90;;;;;;5056123;28;20143;-62
2022/07/11 00:22:54;;;;;;;4.82;2.38;;;15.40;99.90;;;;;;5049696;28;20091;-62
2022/07/11 00:25:20;;;;;;;4.65;2.40;;;15.40;99.90;;;;;;5069475;28;20486;-63
2022/07/11 00:27:46;;;;;;;4.60;2.28;;;15.40;99.90;;;;;;5049966;28;20037;-62
2022/07/11 00:30:12;;;;;;;6.07;2.35;;;15.40;99.90;;;;;;5056601;28;20043;-62
2022/07/11 00:32:38;;;;;;;3.30;2.20;;;15.40;99.90;;;;;;5048787;28;20052;-62
2022/07/11 00:35:04;;;;;;;3.33;2.42;;;15.40;99.90;;;;;;5043847;28;20040;-62
2022/07/11 00:37:29;;;;;;;5.65;2.30;;;15.40;99.90;;;;;;5045739;28;20036;-62
2022/07/11 00:39:59;;;;;;;3.92;2.28;;;15.40;99.90;;;;;;5049183;28;20503;-62
2022/07/11 00:42:25;;;;;;;4.35;2.13;;;15.40;99.90;;;;;;5057474;28;20136;-63
2022/07/11 00:44:50;;;;;;;2.65;2.00;;;15.40;99.90;;;;;;5055385;28;20124;-62
2022/07/11 00:47:16;;;;;;;4.50;2.30;;;15.40;99.90;;;;;;5052090;28;20582;-62
2022/07/11 00:49:42;;;;;;;7.40;1.92;;;15.40;99.90;;;;;;5055396;28;20033;-62
2022/07/11 00:52:09;;;;;;;5.68;1.92;;;15.40;99.90;;;;;;5066969;28;20452;-62
2022/07/11 00:54:35;;;;;;;2.88;1.77;;;15.40;99.90;;;;;;5054756;28;20075;-62
2022/07/11 00:57:00;;;;;;;3.20;1.73;;;15.40;99.90;;;;;;5062081;28;20040;-62
2022/07/11 00:59:29;;;;;;;4.40;1.95;;;15.40;99.90;;;;;;5055003;28;20059;-62
2022/07/11 01:01:54;;;;;;;2.50;1.95;;;15.40;99.90;;;;;;5053128;28;20123;-63
2022/07/11 01:04:21;;;;;;;1.88;1.60;;;15.40;99.90;;;;;;5053082;28;20123;-62
2022/07/11 01:06:47;;;;;;;3.25;1.50;;;15.40;99.90;;;;;;5054668;28;20048;-62
2022/07/11 01:09:13;;;;;;;3.13;1.55;;;15.40;99.90;;;;;;5053394;28;20038;-62
2022/07/11 01:11:38;;;;;;;2.65;1.50;;;15.40;99.90;;;;;;5057526;28;20045;-62
2022/07/11 01:14:04;;;;;;;5.22;2.00;;;15.30;99.90;;;;;;5053273;28;20037;-63
2022/07/11 01:16:30;;;;;;;3.67;1.48;;;15.30;99.90;;;;;;5052649;28;20041;-62
2022/07/11 01:18:56;;;;;;;3.42;1.77;;;15.30;99.90;;;;;;5054647;28;20091;-62
2022/07/11 01:21:35;;;;;;;3.42;1.40;;;15.40;99.90;;;;;;5061629;28;20117;-62
2022/07/11 01:24:02;;;;;;;3.70;1.40;;;15.30;99.90;;;;;;5049389;28;20124;-62
2022/07/11 01:26:29;;;;;;;2.00;1.38;;;15.30;99.90;;;;;;5053695;28;20110;-62
2022/07/11 01:28:57;;;;;;;4.22;1.42;;;15.30;99.90;;;;;;5059519;28;20041;-62
2022/07/11 01:31:23;;;;;;;3.10;1.50;;;15.30;99.90;;;;;;5057649;28;20117;-62
2022/07/11 01:33:49;;;;;;;3.17;1.42;;;15.30;99.90;;;;;;5049761;28;21410;-62
2022/07/11 01:36:18;;;;;;;4.90;1.30;;;15.30;99.90;;;;;;5051446;28;20627;-62
2022/07/11 01:38:44;;;;;;;3.13;1.30;;;15.20;99.90;;;;;;5048295;28;20194;-62
2022/07/11 01:41:13;;;;;;;5.80;1.48;;;15.30;99.90;;;;;;5057329;28;20486;-63
2022/07/11 01:43:38;;;;;;;3.72;1.48;;;15.20;99.90;;;;;;5048773;28;20041;-62
2022/07/11 01:46:04;;;;;;;2.65;1.20;;;15.20;99.90;;;;;;5050441;28;20351;-62
2022/07/11 01:48:30;;;;;;;2.50;1.27;;;15.20;99.90;;;;;;5058312;28;20040;-62
2022/07/11 01:50:55;;;;;;;5.30;1.42;;;15.20;99.90;;;;;;5052852;28;20480;-62
2022/07/11 01:53:21;;;;;;;2.75;1.33;;;15.20;99.90;;;;;;5049874;28;20037;-62
2022/07/11 01:55:46;;;;;;;4.03;1.50;;;15.30;99.90;;;;;;5058493;28;20045;-62
2022/07/11 01:58:12;;;;;;;3.03;1.45;;;15.20;99.90;;;;;;5064202;28;20400;-62
2022/07/11 02:00:38;;;;;;;4.90;1.58;;;15.20;99.90;;;;;;5051196;28;20140;-62
2022/07/11 02:03:03;;;;;;;3.97;2.30;;;15.30;99.90;;;;;;5052370;28;20037;-62
2022/07/11 02:05:29;;;;;;;2.95;1.63;;;15.30;99.90;;;;;;5053485;28;20423;-62
2022/07/11 02:08:13;;;;;;;3.35;1.42;;;15.20;99.90;;;;;;5048561;28;20063;-62
2022/07/11 02:10:41;;;;;;;3.50;1.63;;;15.20;99.90;;;;;;5059119;28;20041;-63
2022/07/11 02:13:09;;;;;;;6.25;1.60;;;15.20;99.90;;;;;;5050581;28;20060;-62
2022/07/11 02:15:35;;;;;;;2.38;1.80;;;15.20;99.90;;;;;;5057413;28;20049;-63
2022/07/11 02:18:00;;;;;;;3.85;1.55;;;15.20;99.90;;;;;;5059231;28;20040;-62
2022/07/11 02:20:26;;;;;;;3.17;1.70;;;15.20;99.90;;;;;;5056208;28;20067;-62
2022/07/11 02:22:51;;;;;;;2.72;1.60;;;15.20;99.90;;;;;;5050584;28;20368;-62
2022/07/11 02:25:18;;;;;;;2.35;1.60;;;15.20;99.90;;;;;;5050305;28;20114;-62
2022/07/11 02:27:44;;;;;;;5.20;1.77;;;15.20;99.90;;;;;;5054959;28;20040;-62
2022/07/11 02:30:10;;;;;;;3.05;1.80;;;15.20;99.90;;;;;;5057132;28;20384;-62
2022/07/11 02:32:39;;;;;;;3.80;1.70;;;15.20;99.90;;;;;;5051948;28;20028;-63
2022/07/11 02:35:05;;;;;;;2.25;1.88;;;15.20;99.90;;;;;;5049874;28;20033;-62
2022/07/11 02:37:33;;;;;;;3.88;2.10;;;15.20;99.90;;;;;;5048444;28;20097;-62
2022/07/11 02:39:59;;;;;;;3.67;1.77;;;15.20;99.90;;;;;;5051590;28;20068;-62
2022/07/11 02:42:24;;;;;;;5.18;2.22;;;15.30;99.90;;;;;;5061529;28;20747;-62
2022/07/11 02:44:50;;;;;;;3.78;1.77;;;15.20;99.90;;;;;;5053898;28;20032;-62
2022/07/11 02:47:16;;;;;;;3.80;2.20;;;15.30;99.90;;;;;;5050230;28;20266;-62
2022/07/11 02:49:42;;;;;;;4.13;2.10;;;15.30;99.90;;;;;;5049444;28;20153;-62
2022/07/11 02:52:08;;;;;;;3.83;2.35;;;15.30;99.90;;;;;;5057996;28;20036;-62
2022/07/11 02:54:33;;;;;;;3.63;2.20;;;15.20;99.90;;;;;;5051272;28;20500;-62
2022/07/11 02:56:59;;;;;;;4.35;1.88;;;15.20;99.90;;;;;;5065179;28;20052;-62
2022/07/11 02:59:24;;;;;;;4.07;2.28;;;15.20;99.90;;;;;;5060659;28;20815;-62
2022/07/11 03:01:50;;;;;;;4.35;2.33;;;15.20;99.90;;;;;;5051868;28;20651;-62
2022/07/11 03:04:16;;;;;;;4.22;2.50;;;15.20;99.90;;;;;;5047876;28;20496;-62
2022/07/11 03:06:42;;;;;;;3.83;2.25;;;15.10;99.90;;;;;;5059886;28;20045;-62
2022/07/11 03:09:08;;;;;;;3.95;2.72;;;15.10;99.90;;;;;;5049385;28;20044;-62
2022/07/11 03:11:35;;;;;;;3.67;2.17;;;15.00;99.90;;;;;;5056125;28;20128;-62
2022/07/11 03:14:01;;;;;;;5.25;2.67;;;15.00;99.90;;;;;;5049545;28;20480;-62
2022/07/11 03:16:33;;;;;;;5.32;2.85;;;15.00;99.90;;;;;;5056556;28;20072;-63
2022/07/11 03:18:59;;;;;;;3.72;2.50;;;15.00;99.90;;;;;;5052494;28;20040;-62
2022/07/11 03:21:25;;;;;;;3.35;2.20;;;15.00;99.90;;;;;;5063355;28;20113;-62
2022/07/11 03:23:51;;;;;;;4.85;2.33;;;15.00;99.90;;;;;;5047226;28;20037;-62
2022/07/11 03:26:17;;;;;;;4.22;2.53;;;15.00;99.90;;;;;;5062392;28;20044;-62
2022/07/11 03:28:42;;;;;;;3.90;2.50;;;15.00;99.90;;;;;;5049985;28;20517;-62
2022/07/11 03:31:08;;;;;;;4.13;2.63;;;15.00;99.90;;;;;;5047363;28;20040;-62
2022/07/11 03:33:34;;;;;;;4.15;2.28;;;14.90;99.90;;;;;;5050130;28;20040;-62
2022/07/11 03:35:59;;;;;;;5.72;2.83;;;14.90;99.90;;;;;;5054854;28;20036;-62
2022/07/11 03:38:25;;;;;;;5.25;2.55;;;15.00;99.90;;;;;;5048312;28;20063;-62
2022/07/11 03:40:51;;;;;;;4.22;2.67;;;14.90;99.90;;;;;;5049115;28;20158;-62
2022/07/11 03:43:16;;;;;;;3.28;1.90;;;14.90;99.90;;;;;;5050594;28;20048;-62
2022/07/11 03:45:43;;;;;;;4.88;2.20;;;14.90;99.90;;;;;;5057219;28;20142;-62
2022/07/11 03:48:10;;;;;;;6.05;2.55;;;14.90;99.90;;;;;;5049507;28;20041;-62
2022/07/11 03:50:36;;;;;;;3.90;2.40;;;14.90;99.90;;;;;;5049511;28;20052;-62
2022/07/11 03:53:02;;;;;;;3.90;2.28;;;14.90;99.90;;;;;;5049882;28;20029;-62
2022/07/11 03:55:28;;;;;;;4.53;2.40;;;14.90;99.90;;;;;;5054865;28;20068;-62
2022/07/11 03:57:54;;;;;;;2.40;2.08;;;14.90;99.90;;;;;;5052241;28;20041;-62
2022/07/11 04:00:20;;;;;;;3.20;2.30;;;14.90;99.90;;;;;;5047254;28;20402;-62
2022/07/11 04:02:48;;;;;;;3.50;2.50;;;14.90;99.90;;;;;;5063542;28;20033;-62
2022/07/11 04:05:14;;;;;;;3.13;2.38;;;15.00;99.90;;;;;;5052215;28;20361;-62
2022/07/11 04:07:40;;;;;;;3.22;2.05;;;15.00;99.90;;;;;;5049144;28;20041;-62
2022/07/11 04:10:06;;;;;;;3.28;2.17;;;15.00;99.90;;;;;;5050123;28;20052;-62
2022/07/11 04:12:32;;;;;;;3.58;2.60;;;15.00;99.90;;;;;;5052617;28;20040;-63
2022/07/11 04:14:58;;;;;;;2.65;2.38;;;15.00;99.90;;;;;;5051840;28;20064;-62
2022/07/11 04:17:23;;;;;;;4.28;2.53;;;15.00;99.90;;;;;;5049574;28;20487;-62
2022/07/11 04:19:49;;;;;;;5.18;2.90;;;15.00;99.90;;;;;;5046589;28;20045;-62
2022/07/11 04:22:15;;;;;;;5.43;2.88;;;15.10;99.90;;;;;;5049918;28;20033;-62
2022/07/11 04:24:40;;;;;;;5.97;2.45;;;15.10;99.90;;;;;;5050718;28;20039;-62
2022/07/11 04:27:06;;;;;;;5.50;2.67;;;15.10;99.90;;;;;;5052632;28;20094;-62
2022/07/11 04:29:32;;;;;;;4.45;2.88;;;15.10;99.90;;;;;;5050932;28;20409;-62
2022/07/11 04:31:57;;;;;;;4.70;2.33;;;15.10;99.90;;;;;;5059035;28;20053;-62
2022/07/11 04:34:23;;;;;;;4.30;2.53;;;15.10;99.90;;;;;;5050115;28;20040;-62
2022/07/11 04:36:48;;;;;;;5.35;3.05;;;15.20;99.90;;;;;;5050864;28;20040;-62
2022/07/11 04:39:14;;;;;;;5.35;3.17;;;15.20;99.90;;;;;;5060921;28;20383;-62
2022/07/11 04:41:40;;;;;;;3.85;2.78;;;15.30;99.90;;;;;;5056364;28;20041;-62
2022/07/11 04:44:05;;;;;;;5.93;3.05;;;15.30;99.90;;;;;;5050534;28;20033;-62
2022/07/11 04:46:32;;;;;;;4.90;2.97;;;15.30;99.90;;;;;;5047905;28;20123;-62
2022/07/11 04:48:58;;;;;;;4.28;2.88;;;15.30;99.90;;;;;;5049047;28;20041;-62
2022/07/11 04:51:24;;;;;;;5.10;2.80;;;15.30;99.90;;;;;;5050734;28;20147;-62
2022/07/11 04:53:50;;;;;;;4.03;2.72;;;15.30;99.90;;;;;;5054964;28;20065;-63
2022/07/11 04:56:16;;;;;;;5.63;3.20;;;15.30;99.90;;;;;;5047981;28;20056;-63
2022/07/11 04:58:42;;;;;;;4.30;2.65;;;15.20;99.90;;;;;;5045045;28;20037;-63
2022/07/11 05:01:08;;;;;;;5.30;2.42;;;15.30;99.90;;;;;;5045274;28;22250;-63
2022/07/11 05:03:34;;;;;;;3.97;2.60;;;15.30;99.90;;;;;;5057737;28;20399;-64
2022/07/11 05:06:00;;;;;;;4.00;2.72;;;15.30;99.90;;;;;;5044683;28;20045;-64
2022/07/11 05:08:26;;;;;;;4.15;2.97;;;15.30;99.90;;;;;;5046661;28;20032;-63
2022/07/11 05:10:51;;;;;;;4.40;2.53;;;15.30;99.90;;;;;;5048897;28;20052;-63
2022/07/11 05:13:17;;;;;;;3.20;2.50;;;15.40;99.90;;;;;;5051660;28;20131;-63
2022/07/11 05:15:44;;;;;;;3.30;2.40;;;15.40;99.90;;;;;;5050505;28;20033;-63
2022/07/11 05:18:10;;;;;;;2.35;1.88;;;15.50;99.90;;;;;;5044652;28;20041;-63
2022/07/11 05:20:35;;;;;;;3.83;2.10;;;15.60;99.90;;;;;;5050556;28;20033;-63
2022/07/11 05:23:01;;;;;;;2.67;2.03;;;15.60;99.90;;;;;;5062068;28;20029;-63
2022/07/11 05:25:27;;;;;;;3.30;1.52;;;15.70;99.90;;;;;;5055975;28;20075;-63
2022/07/11 05:27:52;;;;;;;2.78;1.30;;;15.70;99.90;;;;;;5059015;28;20166;-63
2022/07/11 05:30:18;;;;;;;2.30;1.30;;;15.70;99.90;;;;;;5048105;28;20098;-63
2022/07/11 05:32:44;;;;;;;2.25;1.20;;;15.70;99.90;;;;;;5054306;28;20051;-63
2022/07/11 05:35:09;;;;;;;2.63;1.35;;;15.70;99.90;;;;;;5050627;28;20037;-63
2022/07/11 05:37:35;;;;;;;2.53;1.30;;;15.70;99.90;;;;;;5051884;28;20037;-63
2022/07/11 05:40:01;;;;;;;1.45;1.20;;;15.70;99.90;;;;;;5057581;28;20530;-63
2022/07/11 05:42:27;;;;;;;1.77;1.23;;;15.70;99.90;;;;;;5057946;28;20516;-63
2022/07/11 05:44:52;;;;;;;2.38;1.10;;;15.70;99.90;;;;;;5057608;28;20044;-63
2022/07/11 05:47:18;;;;;;;2.38;1.00;;;15.70;99.90;;;;;;5053995;28;20044;-63
2022/07/11 05:49:43;;;;;;;3.45;1.48;;;15.70;99.90;;;;;;5048192;28;21197;-63
2022/07/11 05:52:09;;;;;;;1.60;1.08;;;15.70;99.90;;;;;;5057978;28;20441;-64
2022/07/11 05:54:36;;;;;;;1.92;0.90;;;15.70;99.90;;;;;;5066018;28;20502;-64
2022/07/11 05:57:02;;;;;;;1.42;0.75;;;15.70;99.90;;;;;;5060096;28;20164;-64
2022/07/11 05:59:28;;;;;;;1.83;1.00;;;15.70;99.90;;;;;;5063174;28;20107;-64
2022/07/11 06:01:54;;;;;;;0.52;0.40;;;15.70;99.90;;;;;;5051083;28;20037;-63
2022/07/11 06:04:20;;;;;;;1.02;0.55;;;15.70;99.90;;;;;;5052757;28;20488;-64
2022/07/11 06:06:45;;;;;;;2.10;0.73;;;15.80;99.90;;;;;;5063713;28;20086;-63
2022/07/11 06:09:11;;;;;;;0.95;0.60;;;15.70;99.90;;;;;;5049068;28;20477;-64
2022/07/11 06:11:37;;;;;;;0.80;0.60;;;15.80;99.90;;;;;;5055126;28;20036;-64
2022/07/11 06:14:03;;;;;;;1.85;0.50;;;15.80;99.90;;;;;;5066846;28;20101;-63
2022/07/11 06:16:28;;;;;;;1.58;0.60;;;15.90;99.90;;;;;;5065016;28;20145;-63
2022/07/11 06:18:54;;;;;;;2.63;0.52;;;15.90;99.90;;;;;;5059040;28;22529;-63
2022/07/11 06:21:22;;;;;;;0.80;0.40;;;16.00;99.90;;;;;;5061703;28;20111;-63
2022/07/11 06:23:48;;;;;;;1.45;0.65;;;16.00;99.90;;;;;;5049813;28;20033;-63
2022/07/11 06:26:15;;;;;;;1.85;0.68;;;16.10;99.90;;;;;;5062223;28;20035;-63
2022/07/11 06:28:41;;;;;;;0.63;0.35;;;16.10;99.90;;;;;;5051757;28;20036;-63
2022/07/11 06:31:07;;;;;;;2.17;0.50;;;16.30;99.90;;;;;;5053974;28;20940;-63
2022/07/11 06:33:34;;;;;;;0.88;0.50;;;16.40;99.90;;;;;;5053745;28;20097;-63
2022/07/11 06:35:59;;;;;;;1.17;0.47;;;16.50;99.90;;;;;;5050924;28;20036;-63
2022/07/11 06:38:25;;;;;;;1.55;0.40;;;16.60;99.90;;;;;;5061190;28;20039;-63
2022/07/11 06:40:50;;;;;;;1.08;0.30;;;16.90;99.90;;;;;;5053442;28;20028;-63
2022/07/11 06:43:16;;;;;;;1.95;0.50;;;17.10;99.90;;;;;;5051929;28;20109;-63
2022/07/11 06:45:41;;;;;;;1.33;0.40;;;17.30;99.90;;;;;;5055212;28;20067;-63
2022/07/11 06:48:07;;;;;;;0.40;0.30;;;17.50;99.90;;;;;;5067525;28;20041;-63
2022/07/11 06:50:33;;;;;;;0.88;0.57;;;17.50;99.90;;;;;;5057440;28;20521;-63
2022/07/11 06:52:59;;;;;;;1.25;0.43;;;17.50;99.90;;;;;;5065683;28;20036;-63
2022/07/11 06:55:25;;;;;;;0.60;0.40;;;17.60;99.90;;;;;;5012895;28;20131;-63
2022/07/11 06:57:51;;;;;;;2.08;0.52;;;17.50;99.90;;;;;;5052976;28;20124;-63
2022/07/11 07:00:19;;;;;;;1.13;0.70;;;17.50;99.90;;;;;;5050116;28;20060;-62
2022/07/11 07:02:45;;;;;;;2.05;0.50;;;17.50;99.90;;;;;;5062577;28;20037;-62
2022/07/11 07:05:11;;;;;;;1.58;0.47;;;17.60;99.90;;;;;;5048799;28;20392;-62
2022/07/11 07:07:37;;;;;;;1.30;0.38;;;17.60;99.90;;;;;;5045824;28;20041;-62
2022/07/11 07:10:04;;;;;;;0.80;0.50;;;17.60;99.90;;;;;;5047528;28;20037;-62
2022/07/11 07:12:29;;;;;;;0.90;0.28;;;17.70;99.90;;;;;;5046979;28;20598;-62
2022/07/11 07:14:55;;;;;;;1.13;0.47;;;17.70;99.90;;;;;;5055629;28;20044;-63
2022/07/11 07:17:20;;;;;;;1.65;0.40;;;17.70;99.90;;;;;;5049046;28;20072;-62
2022/07/11 07:19:46;;;;;;;0.90;0.30;;;17.80;99.90;;;;;;5049312;28;20117;-63
2022/07/11 07:22:16;;;;;;;0.30;0.30;;;18.10;99.90;;;;;;5059007;28;20081;-63
2022/07/11 07:24:42;;;;;;;0.88;0.40;;;18.40;99.90;;;;;;5050840;28;20048;-63
2022/07/11 07:27:08;;;;;;;1.20;0.22;;;18.70;99.90;;;;;;5049121;28;20056;-63
2022/07/11 07:29:34;;;;;;;1.23;0.30;;;19.20;99.90;;;;;;5064437;28;20460;-63
2022/07/11 07:31:59;;;;;;;1.88;0.50;;;19.80;99.90;;;;;;5050953;28;20051;-63
2022/07/11 07:34:25;;;;;;;1.02;0.20;;;20.30;99.90;;;;;;5050457;28;20037;-63
2022/07/11 07:36:51;;;;;;;2.45;0.22;;;20.60;99.90;;;;;;5064707;28;20063;-63
2022/07/11 07:39:17;;;;;;;1.48;0.20;;;20.50;99.90;;;;;;5051526;28;20029;-62
2022/07/11 07:41:43;;;;;;;0.32;0.20;;;20.20;99.90;;;;;;5053976;28;20407;-63
2022/07/11 07:44:09;;;;;;;1.05;0.13;;;20.10;99.90;;;;;;5052041;28;20070;-63
2022/07/11 07:46:34;;;;;;;0.50;0.20;;;19.90;99.90;;;;;;5045828;28;20045;-63
2022/07/11 07:49:00;;;;;;;0.28;0.10;;;19.70;99.90;;;;;;5050584;28;20132;-62
2022/07/11 07:51:26;;;;;;;0.85;0.30;;;19.60;99.90;;;;;;5047709;28;20044;-62
2022/07/11 07:53:52;;;;;;;1.38;0.20;;;19.60;99.90;;;;;;5065841;28;20400;-63
2022/07/11 07:56:17;;;;;;;0.47;0.20;;;19.50;99.90;;;;;;5058737;28;20416;-62
2022/07/11 07:58:43;;;;;;;0.93;0.20;;;19.50;99.90;;;;;;5056697;28;20044;-62
2022/07/11 08:03:54;;;;;;;0.80;0.45;;;19.30;99.90;;;;;;5056267;28;20052;-62
2022/07/11 08:06:20;;;;;;;0.38;0.20;;;19.20;99.90;;;;;;5050000;28;20037;-62
2022/07/11 08:08:46;;;;;;;0.45;0.30;;;19.10;99.90;;;;;;5049782;28;20569;-62
2022/07/11 08:11:11;;;;;;;2.30;0.55;;;19.00;99.90;;;;;;5056216;28;20052;-62
2022/07/11 08:13:37;;;;;;;0.65;0.20;;;19.00;99.90;;;;;;5056494;28;20116;-62
2022/07/11 08:16:06;;;;;;;0.40;0.20;;;19.00;99.90;;;;;;5050456;28;20089;-63
2022/07/11 08:18:33;;;;;;;0.82;0.50;;;19.00;99.90;;;;;;5059364;28;20032;-62
2022/07/11 08:20:59;;;;;;;0.50;0.22;;;19.00;99.90;;;;;;5060288;28;20045;-62
2022/07/11 08:23:25;;;;;;;0.30;0.17;;;19.00;99.90;;;;;;5062419;28;20040;-62
2022/07/11 08:25:50;;;;;;;0.57;0.20;;;19.10;99.90;;;;;;5054427;28;20082;-62
2022/07/11 08:28:16;;;;;;;0.45;0.30;;;19.20;99.90;;;;;;5048978;28;20415;-63
2022/07/11 08:30:42;;;;;;;0.20;0.20;;;19.40;99.90;;;;;;5053710;28;20093;-62
2022/07/11 08:33:07;;;;;;;0.22;0.00;;;19.50;99.90;;;;;;5052263;28;20376;-62
2022/07/11 08:35:33;;;;;;;1.52;0.20;;;19.60;99.90;;;;;;5048281;28;20078;-62
2022/07/11 08:37:58;;;;;;;1.00;0.20;;;19.50;99.90;;;;;;5048085;28;20045;-62
2022/07/11 08:40:24;;;;;;;0.40;0.32;;;19.40;99.90;;;;;;5048316;28;20037;-62
2022/07/11 08:42:49;;;;;;;0.38;0.30;;;19.30;99.90;;;;;;5055522;28;20029;-63
2022/07/11 08:45:16;;;;;;;2.17;0.47;;;19.20;99.90;;;;;;5055354;28;20127;-62
2022/07/11 08:47:43;;;;;;;0.73;0.20;;;19.20;99.90;;;;;;5061574;28;20078;-62
2022/07/11 08:50:12;;;;;;;0.63;0.17;;;19.10;99.90;;;;;;5048630;28;20162;-62
2022/07/11 08:52:38;;;;;;;1.85;0.35;;;19.10;99.90;;;;;;5049560;28;20033;-62
2022/07/11 08:55:06;;;;;;;1.42;0.40;;;19.00;99.90;;;;;;5059064;28;20520;-63
2022/07/11 08:57:36;;;;;;;0.65;0.32;;;19.00;99.90;;;;;;5056279;28;20088;-63
2022/07/11 09:00:08;;;;;;;0.73;0.40;;;19.00;99.90;;;;;;5063245;28;20044;-62
2022/07/11 09:02:34;;;;;;;0.60;0.30;;;19.10;99.90;;;;;;5047818;28;20036;-63
2022/07/11 09:05:07;;;;;;;0.30;0.30;;;19.20;99.90;;;;;;5050382;28;20041;-62
2022/07/11 09:07:33;;;;;;;1.58;0.30;;;19.30;99.90;;;;;;5049810;28;20116;-63
2022/07/11 09:09:59;;;;;;;0.40;0.30;;;19.60;99.90;;;;;;5061118;28;20069;-63
2022/07/11 09:12:25;;;;;;;1.40;0.30;;;19.80;99.90;;;;;;5052544;28;20485;-63
2022/07/11 09:14:54;;;;;;;0.35;0.20;;;20.00;99.90;;;;;;5052880;28;20178;-63
2022/07/11 09:17:32;;;;;;;0.52;0.20;;;20.20;99.90;;;;;;5059251;28;20076;-62
2022/07/11 09:19:58;;;;;;;0.40;0.20;;;20.40;99.90;;;;;;5055913;28;20385;-63
2022/07/11 09:25:19;;;;;;;1.60;0.22;;;20.30;99.90;;;;;;5051824;28;20033;-63
2022/07/11 09:28:04;;;;;;;1.05;0.20;;;20.20;99.90;;;;;;5053533;28;20098;-63
2022/07/11 09:30:47;;;;;;;0.30;0.20;;;20.00;99.90;;;;;;5054395;28;20049;-63
2022/07/11 09:33:13;;;;;;;0.32;0.17;;;19.90;99.90;;;;;;5068114;28;20072;-63
2022/07/11 09:35:45;;;;;;;3.22;0.47;;;19.80;99.90;;;;;;5066067;28;20044;-63
2022/07/11 09:38:15;;;;;;;0.40;0.30;;;19.70;99.90;;;;;;5027918;28;20818;-63
2022/07/11 09:40:43;;;;;;;0.43;0.30;;;19.70;99.90;;;;;;5026800;28;20032;-63
2022/07/11 09:43:09;;;;;;;0.68;0.30;;;19.60;99.90;;;;;;5035622;28;20811;-63
2022/07/11 09:45:35;;;;;;;1.13;0.30;;;19.40;99.90;;;;;;5060449;28;20036;-63
2022/07/11 09:48:11;;;;;;;1.73;0.47;;;19.40;99.90;;;;;;5051434;28;20049;-63
2022/07/11 09:50:39;;;;;;;0.50;0.30;;;19.40;99.90;;;;;;5064099;28;20040;-63
2022/07/11 09:53:04;;;;;;;1.13;0.43;;;19.40;99.90;;;;;;5061426;28;20056;-63
2022/07/11 09:55:32;;;;;;;0.60;0.25;;;19.50;99.90;;;;;;5052146;28;20049;-63
2022/07/11 09:57:58;;;;;;;1.42;0.30;;;19.60;99.90;;;;;;5052797;28;20048;-62
2022/07/11 10:00:23;;;;;;;1.27;0.28;;;19.80;99.90;;;;;;5056028;28;20037;-63
2022/07/11 10:02:51;;;;;;;0.20;0.10;;;20.10;99.90;;;;;;5062539;28;20380;-63
2022/07/11 10:05:17;;;;;;;0.85;0.20;;;20.20;99.90;;;;;;5051464;28;20063;-63
2022/07/11 10:07:43;;;;;;;0.90;0.10;;;20.30;99.90;;;;;;5050884;28;20087;-64
2022/07/11 10:10:10;;;;;;;0.50;0.10;;;20.30;99.90;;;;;;5059207;28;20041;-63
2022/07/11 10:12:36;;;;;;;0.80;0.20;;;20.20;99.90;;;;;;5057434;28;20029;-63
2022/07/11 10:15:04;;;;;;;0.47;0.20;;;20.20;99.90;;;;;;5067148;28;20159;-64
2022/07/11 10:17:43;;;;;;;1.17;0.20;;;20.00;99.90;;;;;;5054609;28;20063;-63
2022/07/11 10:20:21;;;;;;;0.30;0.20;;;20.00;99.90;;;;;;5057068;28;20516;-63
2022/07/11 10:22:59;;;;;;;0.32;0.20;;;20.00;99.90;;;;;;5054028;28;20124;-64
2022/07/11 10:25:37;;;;;;;0.30;0.20;;;19.90;99.90;;;;;;5054898;28;20075;-64
2022/07/11 10:28:23;;;;;;;0.57;0.20;;;20.00;99.90;;;;;;5071996;28;20098;-63
2022/07/11 10:30:59;;;;;;;0.22;0.10;;;20.00;99.90;;;;;;5068933;28;20741;-63
2022/07/11 10:33:26;;;;;;;0.20;0.20;;;20.10;99.90;;;;;;5056161;28;20124;-63
2022/07/11 10:35:55;;;;;;;0.30;0.20;;;20.20;99.90;;;;;;5056451;28;20044;-63
2022/07/11 10:38:23;;;;;;;1.15;0.10;;;20.20;99.90;;;;;;5056965;28;20033;-63
2022/07/11 10:40:58;;;;;;;0.32;0.20;;;20.10;99.90;;;;;;5049553;28;20078;-63
2022/07/11 10:43:30;;;;;;;0.95;0.40;;;20.10;99.90;;;;;;5058275;28;20029;-63
2022/07/11 10:46:18;;;;;;;0.50;0.25;;;20.00;99.90;;;;;;5052051;28;20041;-63
2022/07/11 10:48:59;;;;;;;1.30;0.20;;;20.00;99.90;;;;;;5056788;28;20045;-64
2022/07/11 10:51:34;;;;;;;0.68;0.25;;;19.90;99.90;;;;;;5052631;28;20384;-64
2022/07/11 10:54:26;;;;;;;0.22;0.20;;;19.90;99.90;;;;;;5049577;28;20051;-64
2022/07/11 10:57:00;;;;;;;0.50;0.20;;;19.90;99.90;;;;;;5052743;28;20049;-63
2022/07/11 10:59:26;;;;;;;0.32;0.10;;;19.90;99.90;;;;;;5057269;28;20047;-63
2022/07/11 11:02:10;;;;;;;1.27;0.20;;;19.90;99.90;;;;;;5056663;28;20480;-64
2022/07/11 11:04:59;;;;;;;1.02;0.28;;;19.80;99.90;;;;;;5051338;28;20499;-63
2022/07/11 11:07:35;;;;;;;1.15;0.20;;;19.90;99.90;;;;;;5057165;28;20048;-63
2022/07/11 11:10:26;;;;;;;0.65;0.30;;;20.00;99.90;;;;;;5055595;28;20464;-63
2022/07/11 11:13:04;;;;;;;0.75;0.20;;;20.00;99.90;;;;;;5062700;28;20036;-63
2022/07/11 11:15:56;;;;;;;0.20;0.20;;;20.10;99.90;;;;;;5061060;28;20048;-63
2022/07/11 11:18:25;;;;;;;0.30;0.30;;;20.10;99.90;;;;;;5052915;28;20033;-65
2022/07/11 11:21:02;;;;;;;0.55;0.22;;;20.00;99.90;;;;;;5061976;28;20512;-63
2022/07/11 11:23:33;;;;;;;0.73;0.30;;;20.00;99.90;;;;;;5031751;28;20033;-63
2022/07/11 11:26:15;;;;;;;1.60;0.30;;;19.90;99.90;;;;;;5060811;28;20111;-65
2022/07/11 11:29:10;;;;;;;0.20;0.20;;;20.00;99.90;;;;;;5052220;28;20385;-63
2022/07/11 11:31:36;;;;;;;1.58;0.20;;;20.10;99.90;;;;;;5051690;28;20057;-64
2022/07/11 11:34:03;;;;;;;0.73;0.20;;;20.30;99.90;;;;;;5057102;28;20511;-63
2022/07/11 11:36:29;;;;;;;0.30;0.20;;;20.50;99.90;;;;;;5050195;28;20041;-64
2022/07/11 11:38:55;;;;;;;1.08;0.22;;;20.80;99.40;;;;;;5058580;28;20048;-63
2022/07/11 11:41:31;;;;;;;0.30;0.20;;;20.90;99.00;;;;;;5050054;28;20112;-63
2022/07/11 11:44:01;;;;;;;0.65;0.13;;;21.20;98.60;;;;;;5069039;28;20467;-63
2022/07/11 11:46:33;;;;;;;0.22;0.20;;;21.60;97.80;;;;;;5071977;28;20392;-64
2022/07/11 11:49:01;;;;;;;0.32;0.20;;;22.10;96.50;;;;;;5062845;28;20029;-64
2022/07/11 11:51:28;;;;;;;0.35;0.20;;;22.20;95.90;;;;;;5056479;28;20119;-64
2022/07/11 11:53:59;;;;;;;0.65;0.20;;;22.40;95.30;;;;;;5059572;28;20041;-64
2022/07/11 11:56:28;;;;;;;0.45;0.30;;;22.40;94.90;;;;;;5052944;28;20179;-64
2022/07/11 11:59:04;;;;;;;0.20;0.20;;;22.40;94.60;;;;;;5056003;28;20052;-64
2022/07/11 12:01:36;;;;;;;0.50;0.20;;;22.10;94.10;;;;;;5059262;28;20481;-64
2022/07/11 12:04:07;;;;;;;1.75;0.50;;;21.90;94.30;;;;;;5051231;28;20049;-64
2022/07/11 12:06:37;;;;;;;0.85;0.30;;;21.70;94.70;;;;;;5050617;28;20403;-64
2022/07/11 12:09:09;;;;;;;1.20;0.15;;;21.60;94.90;;;;;;5053076;28;20048;-64
2022/07/11 12:11:37;;;;;;;0.65;0.30;;;21.80;94.90;;;;;;5061016;28;20095;-64
2022/07/11 12:14:05;;;;;;;1.50;0.40;;;22.00;94.80;;;;;;5052026;28;20079;-65
2022/07/11 12:16:46;;;;;;;0.77;0.30;;;22.00;94.60;;;;;;5054755;28;20580;-64
2022/07/11 12:19:21;;;;;;;0.20;0.20;;;22.10;94.50;;;;;;5039080;28;20514;-65
2022/07/11 12:21:49;;;;;;;0.50;0.13;;;21.90;94.50;;;;;;5051266;28;20132;-64
2022/07/11 12:24:23;;;;;;;1.40;0.25;;;21.70;94.60;;;;;;5063528;28;20854;-63
2022/07/11 12:26:50;;;;;;;0.98;0.30;;;21.60;94.90;;;;;;5052133;28;20682;-65
2022/07/11 12:29:22;;;;;;;0.60;0.30;;;21.50;95.00;;;;;;5053379;28;20086;-64
2022/07/11 12:31:52;;;;;;;0.30;0.30;;;21.50;94.60;;;;;;5052825;28;20037;-64
2022/07/11 12:34:19;;;;;;;0.82;0.28;;;21.50;94.80;;;;;;5063466;28;20381;-63
2022/07/11 12:36:46;;;;;;;0.30;0.20;;;21.60;94.90;;;;;;5051337;28;20118;-64
2022/07/11 12:39:26;;;;;;;0.65;0.35;;;21.60;95.00;;;;;;5052090;28;20048;-63
2022/07/11 12:41:56;;;;;;;0.93;0.20;;;21.50;94.60;;;;;;5058728;28;20028;-63
2022/07/11 12:47:08;;;;;;;2.45;0.40;;;21.50;95.10;;;;;;5067208;28;20131;-64
2022/07/11 12:49:34;;;;;;;1.13;0.40;;;21.50;95.10;;;;;;5058274;28;20618;-64
2022/07/11 12:52:02;;;;;;;1.05;0.43;;;21.50;95.10;;;;;;5073335;28;20407;-64
2022/07/11 12:54:33;;;;;;;2.40;0.60;;;21.40;95.10;;;;;;5053330;28;20047;-65
2022/07/11 12:57:01;;;;;;;1.73;0.30;;;21.40;95.10;;;;;;5054639;28;20090;-64
2022/07/11 12:59:28;;;;;;;0.60;0.38;;;21.50;95.10;;;;;;5054667;28;20150;-65